createdAt,value
2022-11-17T00:07:57.733Z,98.6
2022-11-17T00:27:57.715Z,98.8
2022-11-17T00:47:57.734Z,97.9
2022-11-17T01:07:57.708Z,98.9
2022-11-17T01:27:57.692Z,99.3
2022-11-17T01:47:57.672Z,99.4
2022-11-17T02:07:57.698Z,100.0
2022-11-17T02:27:57.647Z,99.5
2022-11-17T02:47:57.620Z,99.1
2022-11-17T03:07:57.633Z,99.8
2022-11-17T03:27:57.617Z,100.0
2022-11-17T03:47:57.594Z,99.8
2022-11-17T04:07:57.643Z,99.6
2022-11-17T04:27:57.570Z,100.0
2022-11-17T04:47:57.552Z,99.6
2022-11-17T05:27:57.570Z,100.0
2022-11-17T05:47:57.503Z,100.0
2022-11-17T06:07:57.496Z,100.0
2022-11-17T06:27:57.590Z,100.0
2022-11-17T06:47:57.497Z,100.0
2022-11-17T07:07:57.503Z,100.0
2022-11-17T07:27:57.456Z,100.0
2022-11-17T07:47:57.421Z,100.0
2022-11-17T08:07:57.409Z,100.0
2022-11-17T08:27:57.393Z,100.0
2022-11-17T08:47:57.443Z,100.0
2022-11-17T09:07:57.544Z,100.0
2022-11-17T09:27:57.341Z,100.0
2022-11-17T09:47:57.326Z,100.0
2022-11-17T10:07:57.315Z,100.0
2022-11-17T10:27:57.298Z,100.0
2022-11-17T10:47:57.280Z,100.0
2022-11-17T11:07:57.274Z,100.0
2022-11-17T11:27:57.241Z,100.0
2022-11-17T11:47:57.208Z,100.0
2022-11-17T12:07:57.185Z,100.0
2022-11-17T12:27:57.182Z,100.0
2022-11-17T12:47:57.148Z,100.0
2022-11-17T13:07:57.130Z,100.0
2022-11-17T13:27:57.334Z,100.0
2022-11-17T13:47:57.174Z,100.0
2022-11-17T14:07:57.145Z,100.0
2022-11-17T14:27:57.251Z,99.7
2022-11-17T14:47:57.015Z,97.7
2022-11-17T15:07:57.200Z,97.6
2022-11-17T15:27:57.017Z,97.5
2022-11-17T15:47:57.129Z,98.0
2022-11-17T16:07:57.039Z,97.9
2022-11-17T16:27:57.135Z,98.5
2022-11-17T16:47:56.892Z,98.0
2022-11-17T17:07:56.901Z,98.3
2022-11-17T17:27:56.873Z,98.3
2022-11-17T17:47:56.948Z,98.7
2022-11-17T18:07:56.825Z,97.3
2022-11-17T18:27:56.807Z,97.7
2022-11-17T18:47:56.783Z,98.2
2022-11-17T19:07:56.750Z,99.0
2022-11-17T19:27:56.752Z,99.0
2022-11-17T19:47:56.788Z,99.0
2022-11-17T20:07:56.718Z,99.4
2022-11-17T20:27:56.689Z,98.7
2022-11-17T20:47:56.676Z,98.5
2022-11-17T21:07:56.771Z,98.7
2022-11-17T21:27:56.705Z,99.4
2022-11-17T21:47:56.616Z,99.4
2022-11-17T22:07:56.626Z,100.0
2022-11-17T22:27:56.585Z,99.8
2022-11-17T22:47:56.571Z,98.8
2022-11-17T23:07:56.542Z,99.1
2022-11-17T23:27:56.517Z,99.5
2022-11-17T23:47:56.516Z,99.6
